Time;durP1;ratioP1;P1;durP2;ratioP2;P2;SDS_P1;SDS_P2;PMS_P1;PMS_P2;Temp;Humidity;BMP_temperature;BMP_pressure;BME280_temperature;BME280_humidity;BME280_pressure;Samples;Min_cycle;Max_cycle;Signal;HPM_P1;HPM_P2
2023/09/02 00:01:33;;;;;;;10.77;9.00;;;;;;;19.54;60.51;94348.06;5085095;28;20021;-74
2023/09/02 00:03:58;;;;;;;12.82;8.52;;;;;;;19.49;60.79;94356.47;5085244;28;20032;-73
2023/09/02 00:06:23;;;;;;;11.10;8.70;;;;;;;19.44;60.97;94355.63;5085057;28;20051;-73
2023/09/02 00:08:49;;;;;;;9.40;7.85;;;;;;;19.43;60.12;94351.34;5084999;28;20023;-73
2023/09/02 00:11:14;;;;;;;12.63;9.00;;;;;;;19.36;60.86;94362.03;5084756;28;20196;-74
2023/09/02 00:13:39;;;;;;;10.38;8.20;;;;;;;19.24;61.11;94346.75;5085085;28;20028;-74
2023/09/02 00:16:05;;;;;;;10.52;8.35;;;;;;;19.24;61.06;94349.44;5084846;28;20028;-74
2023/09/02 00:18:30;;;;;;;10.50;8.70;;;;;;;19.21;61.08;94352.88;5084784;28;20031;-74
2023/09/02 00:20:55;;;;;;;10.57;7.60;;;;;;;19.18;61.34;94342.78;5084759;28;20058;-74
2023/09/02 00:23:21;;;;;;;10.10;8.43;;;;;;;19.17;61.38;94351.22;5084823;28;20020;-74
2023/09/02 00:25:46;;;;;;;15.00;8.25;;;;;;;19.15;61.53;94348.09;5084724;28;20074;-74
2023/09/02 00:28:12;;;;;;;10.43;8.45;;;;;;;19.14;61.46;94349.25;5084708;28;20025;-74
2023/09/02 00:30:37;;;;;;;12.23;9.13;;;;;;;19.04;62.29;94350.59;5084581;28;20048;-74
2023/09/02 00:33:03;;;;;;;11.07;8.18;;;;;;;18.96;61.95;94346.94;5066671;28;20024;-73
2023/09/02 00:35:28;;;;;;;11.05;8.93;;;;;;;18.88;62.38;94350.63;5066654;28;20021;-74
2023/09/02 00:37:54;;;;;;;10.18;8.65;;;;;;;18.91;62.33;94355.34;5084128;28;20138;-73
2023/09/02 00:40:22;;;;;;;10.70;8.52;;;;;;;18.92;62.60;94354.19;5084231;28;20091;-73
2023/09/02 00:42:50;;;;;;;12.27;9.15;;;;;;;18.93;62.62;94353.06;5083911;28;20232;-73
2023/09/02 00:45:21;;;;;;;9.85;7.85;;;;;;;18.88;62.86;94356.03;5084005;28;20020;-73
2023/09/02 00:47:48;;;;;;;13.67;9.43;;;;;;;18.82;62.64;94357.44;5083976;28;20028;-73
2023/09/02 00:50:14;;;;;;;9.98;8.25;;;;;;;18.80;62.43;94365.13;5083912;28;20030;-73
2023/09/02 00:52:39;;;;;;;10.52;7.97;;;;;;;18.69;62.74;94358.69;5083945;28;20230;-73
2023/09/02 00:55:05;;;;;;;12.80;9.30;;;;;;;18.66;63.32;94360.16;5065919;28;20218;-72
2023/09/02 00:57:30;;;;;;;11.48;9.25;;;;;;;18.61;63.52;94355.03;5083888;28;20033;-73
2023/09/02 00:59:56;;;;;;;10.85;8.23;;;;;;;18.62;63.49;94359.28;5066213;28;20024;-73
2023/09/02 01:02:22;;;;;;;11.75;9.23;;;;;;;18.54;63.69;94352.97;5083318;28;20024;-73
2023/09/02 01:04:48;;;;;;;13.93;9.30;;;;;;;18.59;63.74;94355.38;5082330;28;20244;-72
2023/09/02 01:07:15;;;;;;;11.75;8.40;;;;;;;18.49;63.86;94350.53;5082247;28;20033;-72
2023/09/02 01:09:41;;;;;;;14.45;9.48;;;;;;;18.50;64.25;94340.50;5083704;28;20238;-72
2023/09/02 01:12:07;;;;;;;10.75;8.63;;;;;;;18.46;64.12;94345.84;5083439;28;20267;-73
2023/09/02 01:14:32;;;;;;;11.65;8.90;;;;;;;18.41;64.46;94343.41;5083674;28;20024;-72
2023/09/02 01:16:58;;;;;;;11.50;8.68;;;;;;;18.37;64.41;94348.72;5083635;28;20251;-73
2023/09/02 01:19:23;;;;;;;10.82;9.02;;;;;;;18.33;64.62;94349.78;5083647;28;20024;-72
2023/09/02 01:22:29;;;;;;;12.13;9.00;;;;;;;18.31;64.52;94354.72;5083688;28;20154;-72
2023/09/02 01:25:04;;;;;;;12.30;9.70;;;;;;;18.24;64.96;94360.75;5083478;28;20195;-72
2023/09/02 01:27:35;;;;;;;13.57;9.80;;;;;;;18.21;65.30;94353.34;5083467;28;20170;-73
2023/09/02 01:30:23;;;;;;;11.70;9.57;;;;;;;18.18;64.87;94356.75;5083571;28;20040;-73
2023/09/02 01:32:52;;;;;;;10.82;8.82;;;;;;;18.21;65.20;94359.50;5083323;28;20100;-73
2023/09/02 01:35:24;;;;;;;13.00;9.15;;;;;;;18.25;64.69;94356.91;5083244;28;20341;-72
2023/09/02 01:37:55;;;;;;;11.30;8.73;;;;;;;18.25;64.63;94356.91;5083262;28;20020;-71
2023/09/02 01:40:25;;;;;;;17.45;9.18;;;;;;;18.23;65.14;94359.94;5083206;28;20046;-75
2023/09/02 01:42:56;;;;;;;11.77;9.77;;;;;;;18.25;65.25;94356.91;5083293;28;20028;-73
2023/09/02 01:45:24;;;;;;;12.32;9.40;;;;;;;18.24;65.27;94361.53;5083054;28;20020;-73
2023/09/02 01:47:51;;;;;;;11.93;9.45;;;;;;;18.19;65.85;94359.09;5083216;28;20022;-73
2023/09/02 01:50:21;;;;;;;11.63;9.50;;;;;;;18.17;65.91;94358.66;5083092;28;20091;-73
2023/09/02 01:52:47;;;;;;;10.52;8.63;;;;;;;18.12;65.96;94363.53;5083040;28;20107;-73
2023/09/02 01:55:13;;;;;;;12.35;9.98;;;;;;;18.10;66.01;94365.81;5083218;28;20021;-73
2023/09/02 01:57:39;;;;;;;12.07;9.48;;;;;;;18.02;66.19;94356.75;5082984;28;20030;-73
2023/09/02 02:00:06;;;;;;;14.20;9.35;;;;;;;18.04;66.45;94357.97;5083108;28;20187;-73
2023/09/02 02:02:31;;;;;;;11.55;9.07;;;;;;;17.98;66.17;94358.56;5083015;28;20027;-73
2023/09/02 02:05:00;;;;;;;14.10;9.60;;;;;;;17.90;66.58;94363.00;5082832;28;20020;-73
2023/09/02 02:07:35;;;;;;;10.98;8.43;;;;;;;17.94;65.88;94365.78;5064914;28;20020;-73
2023/09/02 02:10:04;;;;;;;13.98;8.80;;;;;;;17.97;65.24;94367.78;5082739;28;20253;-73
2023/09/02 02:12:31;;;;;;;11.52;9.38;;;;;;;17.99;65.27;94368.22;5082734;28;20062;-73
2023/09/02 02:14:56;;;;;;;10.60;8.30;;;;;;;17.99;65.29;94360.94;5082735;28;20262;-74
2023/09/02 02:17:22;;;;;;;10.15;8.15;;;;;;;17.99;65.43;94365.53;5082727;28;20016;-73
2023/09/02 02:19:48;;;;;;;11.30;8.60;;;;;;;17.99;65.34;94368.22;5082221;28;20499;-74
2023/09/02 02:22:13;;;;;;;12.85;8.90;;;;;;;17.94;65.66;94365.78;5082876;28;20017;-74
2023/09/02 02:24:38;;;;;;;10.63;8.55;;;;;;;17.90;66.43;94364.91;5082730;28;20017;-74
2023/09/02 02:27:04;;;;;;;12.60;9.50;;;;;;;17.86;66.40;94361.34;5082690;28;20391;-74
2023/09/02 02:29:30;;;;;;;12.18;8.50;;;;;;;17.83;66.25;94369.00;5064826;28;20017;-74
2023/09/02 02:31:55;;;;;;;10.35;8.40;;;;;;;17.80;66.90;94369.66;5082466;28;20020;-74
2023/09/02 02:34:23;;;;;;;11.50;7.85;;;;;;;17.84;66.82;94367.84;5082325;28;20021;-74
2023/09/02 02:36:49;;;;;;;11.82;9.15;;;;;;;17.78;66.93;94365.75;5063065;28;20025;-74
2023/09/02 02:39:14;;;;;;;13.32;8.80;;;;;;;17.76;67.21;94363.38;5081931;28;20088;-74
2023/09/02 02:41:40;;;;;;;11.13;7.78;;;;;;;17.72;67.14;94359.03;5081237;28;20053;-74
2023/09/02 02:44:05;;;;;;;11.18;8.40;;;;;;;17.70;67.30;94353.97;5082153;28;20245;-74
2023/09/02 02:46:31;;;;;;;10.98;8.15;;;;;;;17.62;67.45;94360.31;5082314;28;20226;-74
2023/09/02 02:48:56;;;;;;;14.60;8.52;;;;;;;17.58;67.16;94354.06;5082389;28;20103;-74
2023/09/02 02:51:22;;;;;;;11.32;7.38;;;;;;;17.56;67.29;94354.41;5082319;28;20088;-74
2023/09/02 02:53:47;;;;;;;14.52;8.70;;;;;;;17.51;67.43;94367.34;5082451;28;20219;-74
2023/09/02 02:56:13;;;;;;;11.45;8.30;;;;;;;17.52;67.73;94358.13;5064701;28;20104;-74
2023/09/02 02:58:38;;;;;;;17.85;8.25;;;;;;;17.47;67.78;94361.09;5082471;28;20035;-74
2023/09/02 03:01:05;;;;;;;14.65;8.93;;;;;;;17.51;67.97;94372.75;5082274;28;20021;-74
2023/09/02 03:03:32;;;;;;;12.93;7.88;;;;;;;17.46;67.74;94371.06;5082172;28;20017;-74
2023/09/02 03:06:02;;;;;;;11.73;8.70;;;;;;;17.42;68.01;94376.38;5064331;28;20092;-74
2023/09/02 03:08:27;;;;;;;9.57;7.22;;;;;;;17.36;68.53;94371.56;5064337;28;20043;-73
2023/09/02 03:11:01;;;;;;;15.18;8.25;;;;;;;17.35;68.48;94375.38;5082063;28;20104;-72
2023/09/02 03:13:28;;;;;;;12.70;7.72;;;;;;;17.32;68.52;94370.66;5082209;28;20028;-73
2023/09/02 03:15:55;;;;;;;12.68;8.10;;;;;;;17.25;68.83;94373.97;5082133;28;20028;-73
2023/09/02 03:18:24;;;;;;;15.45;8.45;;;;;;;17.30;68.55;94375.63;5082338;28;20074;-73
2023/09/02 03:20:49;;;;;;;13.75;7.88;;;;;;;17.24;68.40;94381.28;5082156;28;20086;-73
2023/09/02 03:23:15;;;;;;;12.05;8.73;;;;;;;17.22;68.29;94375.44;5082340;28;20028;-73
2023/09/02 03:25:40;;;;;;;10.05;8.05;;;;;;;17.22;68.24;94374.66;5082280;28;20021;-73
2023/09/02 03:28:06;;;;;;;10.45;7.80;;;;;;;17.21;68.28;94378.47;5082117;28;20112;-73
2023/09/02 03:30:31;;;;;;;16.35;10.23;;;;;;;17.17;68.68;94369.50;5064194;28;20031;-73
2023/09/02 03:32:58;;;;;;;13.73;7.70;;;;;;;17.15;68.51;94374.44;5085816;28;20017;-73
2023/09/02 03:35:23;;;;;;;16.45;8.25;;;;;;;17.16;68.80;94373.34;5085686;28;20043;-73
2023/09/02 03:37:49;;;;;;;12.85;8.55;;;;;;;17.17;68.67;94369.50;5085679;28;20020;-73
2023/09/02 03:40:15;;;;;;;14.00;7.40;;;;;;;17.17;68.78;94372.97;5085714;28;20020;-73
2023/09/02 03:42:41;;;;;;;10.80;8.30;;;;;;;17.09;68.98;94373.91;5085648;28;20053;-73
2023/09/02 03:45:07;;;;;;;14.27;8.38;;;;;;;17.10;68.98;94375.47;5085619;28;20374;-73
2023/09/02 03:47:33;;;;;;;14.70;8.82;;;;;;;17.07;69.33;94369.97;5085495;28;20016;-73
2023/09/02 03:49:58;;;;;;;14.13;7.93;;;;;;;17.02;69.41;94374.50;5085278;28;20023;-73
2023/09/02 03:52:24;;;;;;;16.77;7.65;;;;;;;17.05;69.29;94378.41;5085198;28;20078;-73
2023/09/02 03:54:50;;;;;;;15.40;8.57;;;;;;;16.99;69.34;94379.75;5085448;28;20032;-73
2023/09/02 03:57:15;;;;;;;16.38;8.98;;;;;;;16.98;69.45;94388.97;5085424;28;20016;-73
2023/09/02 03:59:40;;;;;;;12.20;9.18;;;;;;;16.91;69.89;94381.47;5085105;28;20214;-72
2023/09/02 04:02:06;;;;;;;13.02;9.02;;;;;;;16.90;69.86;94377.22;5085160;28;20062;-72
2023/09/02 04:04:31;;;;;;;17.50;8.85;;;;;;;16.94;69.73;94388.88;5085196;28;20035;-73
2023/09/02 04:06:57;;;;;;;11.80;7.95;;;;;;;16.92;69.31;94376.88;5084929;28;20017;-73
2023/09/02 04:09:22;;;;;;;10.85;8.15;;;;;;;16.96;69.09;94386.63;5084929;28;20294;-73
2023/09/02 04:11:47;;;;;;;12.98;8.93;;;;;;;17.04;68.91;94388.38;5084456;28;20266;-73
2023/09/02 04:14:13;;;;;;;12.55;8.43;;;;;;;17.10;68.74;94388.16;5084920;28;20046;-73
2023/09/02 04:16:38;;;;;;;14.20;9.13;;;;;;;17.12;68.25;94385.91;5084974;28;20017;-74
2023/09/02 04:19:04;;;;;;;10.75;8.23;;;;;;;17.10;68.34;94390.88;5084839;28;20038;-73
2023/09/02 04:21:33;;;;;;;9.95;7.65;;;;;;;17.11;68.42;94387.81;5084793;28;20012;-73
2023/09/02 04:23:58;;;;;;;13.82;8.43;;;;;;;17.10;68.58;94386.25;5084770;28;20054;-74
2023/09/02 04:26:23;;;;;;;16.85;8.60;;;;;;;17.10;69.09;94391.63;5084850;28;20020;-74
2023/09/02 04:28:49;;;;;;;10.45;7.70;;;;;;;17.17;68.40;94388.34;5084472;28;20039;-74
2023/09/02 04:31:15;;;;;;;15.25;8.35;;;;;;;17.27;68.19;94389.78;5084767;28;20413;-73
2023/09/02 04:33:40;;;;;;;11.85;8.55;;;;;;;17.31;67.87;94394.16;5084826;28;20024;-74
2023/09/02 04:36:06;;;;;;;11.88;8.73;;;;;;;17.34;67.85;94389.97;5084588;28;20089;-74
2023/09/02 04:38:31;;;;;;;13.20;9.32;;;;;;;17.39;68.08;94398.59;5084549;28;20203;-74
2023/09/02 04:40:57;;;;;;;20.25;9.00;;;;;;;17.45;67.73;94407.22;5084407;28;20016;-74
2023/09/02 04:43:22;;;;;;;13.32;9.20;;;;;;;17.52;67.87;94396.63;5066233;28;20027;-74
2023/09/02 04:45:48;;;;;;;12.65;7.55;;;;;;;17.59;67.29;94404.16;5084388;28;20107;-74
2023/09/02 04:48:14;;;;;;;11.02;8.23;;;;;;;17.62;67.35;94400.75;5084389;28;20028;-74
2023/09/02 04:50:40;;;;;;;11.73;8.68;;;;;;;17.64;67.35;94404.66;5084155;28;20016;-74
2023/09/02 04:53:07;;;;;;;13.48;9.15;;;;;;;17.70;67.35;94402.50;5084269;28;20339;-74
2023/09/02 04:55:33;;;;;;;12.23;9.57;;;;;;;17.76;67.27;94411.91;5084149;28;20024;-74
2023/09/02 04:57:59;;;;;;;14.02;9.10;;;;;;;17.78;67.06;94414.28;5084031;28;20202;-74
2023/09/02 05:00:26;;;;;;;13.38;9.60;;;;;;;17.81;67.23;94411.69;5084164;28;20073;-73
2023/09/02 05:02:52;;;;;;;13.43;9.73;;;;;;;17.81;67.63;94408.19;5084025;28;20024;-74
2023/09/02 05:05:18;;;;;;;14.75;10.50;;;;;;;17.80;67.55;94407.41;5084040;28;20091;-74
2023/09/02 05:07:44;;;;;;;22.88;13.93;;;;;;;17.86;67.42;94404.50;5083867;28;20029;-74
2023/09/02 05:10:14;;;;;;;22.35;12.43;;;;;;;17.86;67.35;94415.28;5083792;28;20036;-74
2023/09/02 05:12:39;;;;;;;18.95;12.60;;;;;;;17.89;67.46;94414.56;5083666;28;20024;-74
2023/09/02 05:15:06;;;;;;;17.45;12.85;;;;;;;17.95;67.66;94418.59;5083719;28;20043;-75
2023/09/02 05:17:32;;;;;;;21.48;13.57;;;;;;;17.91;68.05;94412.31;5083506;28;20319;-74
2023/09/02 05:19:58;;;;;;;21.35;13.38;;;;;;;18.00;67.86;94421.03;5083450;28;20184;-73
2023/09/02 05:22:24;;;;;;;23.23;13.80;;;;;;;17.93;67.73;94413.56;5083534;28;20062;-73
2023/09/02 05:24:49;;;;;;;18.25;13.48;;;;;;;17.98;68.00;94420.59;5083479;28;20262;-74
2023/09/02 05:27:15;;;;;;;22.98;13.73;;;;;;;18.07;67.75;94425.81;5083430;28;20036;-74
2023/09/02 05:29:40;;;;;;;21.40;13.85;;;;;;;18.12;67.30;94414.78;5082274;28;20036;-74
2023/09/02 05:32:05;;;;;;;22.55;15.27;;;;;;;18.10;67.53;94417.06;5083171;28;20046;-74
2023/09/02 05:34:31;;;;;;;34.25;14.75;;;;;;;18.19;67.66;94423.81;5083419;28;20024;-73
2023/09/02 05:36:56;;;;;;;21.30;14.38;;;;;;;18.19;67.06;94418.44;5083216;28;20020;-74
2023/09/02 05:39:22;;;;;;;20.00;13.48;;;;;;;18.18;67.04;94413.41;5083288;28;20059;-74
2023/09/02 05:41:47;;;;;;;20.85;14.45;;;;;;;18.21;67.02;94416.16;5083109;28;20027;-74
2023/09/02 05:44:13;;;;;;;17.35;13.27;;;;;;;18.15;67.42;94408.69;5083208;28;20027;-74
2023/09/02 05:46:38;;;;;;;20.63;12.73;;;;;;;18.20;67.26;94413.84;5082984;28;20196;-74
2023/09/02 05:49:04;;;;;;;21.27;11.93;;;;;;;18.26;66.74;94420.53;5083251;28;20024;-73
2023/09/02 05:51:29;;;;;;;16.33;12.05;;;;;;;18.30;66.56;94424.13;5083137;28;20036;-74
2023/09/02 05:53:55;;;;;;;21.52;12.27;;;;;;;18.35;66.35;94426.53;5082309;28;20020;-74
2023/09/02 05:56:21;;;;;;;18.63;12.57;;;;;;;18.40;65.46;94428.22;5082927;28;20020;-73
2023/09/02 05:58:46;;;;;;;19.27;12.68;;;;;;;18.46;64.73;94424.13;5083128;28;20020;-74
2023/09/02 06:01:12;;;;;;;19.15;12.00;;;;;;;18.46;65.33;94421.41;5083134;28;20032;-73
2023/09/02 06:03:37;;;;;;;18.48;12.05;;;;;;;18.51;65.70;94434.63;5082966;28;20024;-73
2023/09/02 06:06:12;;;;;;;24.90;12.48;;;;;;;18.58;65.19;94439.41;5082704;28;20191;-73
2023/09/02 06:08:38;;;;;;;19.45;12.05;;;;;;;18.56;65.29;94445.19;5083006;28;20032;-73
2023/09/02 06:11:03;;;;;;;17.80;12.13;;;;;;;18.64;65.09;94444.22;5080969;28;20036;-74
2023/09/02 06:13:30;;;;;;;20.90;13.10;;;;;;;18.68;64.62;94443.50;5080866;28;20059;-72
2023/09/02 06:16:00;;;;;;;19.13;12.18;;;;;;;18.69;64.65;94435.06;5082615;28;20298;-73
2023/09/02 06:18:26;;;;;;;17.60;12.43;;;;;;;18.78;65.04;94445.66;5082852;28;20020;-72
2023/09/02 06:20:51;;;;;;;17.65;13.45;;;;;;;18.81;65.00;94442.31;5064530;28;20127;-72
2023/09/02 06:23:17;;;;;;;16.98;12.05;;;;;;;18.83;64.68;94440.81;5082754;28;20020;-72
2023/09/02 06:25:42;;;;;;;14.80;11.23;;;;;;;18.88;64.15;94447.88;5083269;28;20104;-72
2023/09/02 06:28:07;;;;;;;17.13;12.45;;;;;;;18.92;64.54;94445.25;5082713;28;20028;-72
2023/09/02 06:30:36;;;;;;;24.73;13.32;;;;;;;18.97;64.39;94447.66;5082536;28;20042;-73
2023/09/02 06:33:01;;;;;;;15.18;11.35;;;;;;;19.04;64.00;94445.13;5082437;28;20052;-73
2023/09/02 06:35:30;;;;;;;15.90;11.52;;;;;;;19.09;63.71;94444.06;5082742;28;20035;-73
2023/09/02 06:37:55;;;;;;;13.30;10.20;;;;;;;19.21;63.42;94442.06;5082750;28;20057;-73
2023/09/02 06:40:21;;;;;;;18.35;11.40;;;;;;;19.20;62.65;94439.69;5082704;28;20303;-73
2023/09/02 06:42:46;;;;;;;16.48;11.13;;;;;;;19.24;62.61;94437.84;5082757;28;20039;-73
2023/09/02 06:45:11;;;;;;;16.55;11.55;;;;;;;19.34;61.89;94448.09;5082773;28;20044;-73
2023/09/02 06:47:37;;;;;;;19.17;10.85;;;;;;;19.43;62.34;94439.78;5082346;28;20074;-73
2023/09/02 06:50:02;;;;;;;17.83;11.30;;;;;;;19.41;61.97;94442.84;5082606;28;20020;-73
2023/09/02 06:52:28;;;;;;;20.00;9.93;;;;;;;19.53;61.42;94438.44;5082458;28;20222;-73
2023/09/02 06:54:53;;;;;;;13.32;10.10;;;;;;;19.62;61.40;94439.00;5082714;28;20024;-73
2023/09/02 06:57:19;;;;;;;17.42;10.45;;;;;;;19.74;61.36;94438.91;5082501;28;20366;-73
2023/09/02 06:59:44;;;;;;;19.60;10.52;;;;;;;19.92;60.92;94443.84;5064927;28;20023;-73
2023/09/02 07:02:09;;;;;;;21.95;10.82;;;;;;;20.04;60.24;94449.09;5082253;28;20096;-73
2023/09/02 07:04:35;;;;;;;18.02;9.80;;;;;;;20.03;60.16;94451.03;5063050;28;20036;-73
2023/09/02 07:07:00;;;;;;;28.08;10.70;;;;;;;20.14;59.33;94450.44;5084522;28;20067;-73
2023/09/02 07:09:25;;;;;;;16.75;9.93;;;;;;;20.21;58.66;94448.66;5084770;28;20035;-74
2023/09/02 07:11:52;;;;;;;19.88;10.18;;;;;;;20.31;58.29;94446.47;5084228;28;20043;-73
2023/09/02 07:14:18;;;;;;;13.60;10.45;;;;;;;20.38;58.43;94436.56;5084483;28;20079;-74
2023/09/02 07:16:43;;;;;;;17.05;9.77;;;;;;;20.44;58.54;94447.88;5084269;28;20311;-73
2023/09/02 07:19:09;;;;;;;22.02;9.57;;;;;;;20.52;57.56;94432.53;5084405;28;20035;-76
2023/09/02 07:21:34;;;;;;;14.93;10.07;;;;;;;20.57;57.87;94448.47;5085809;28;20047;-73
2023/09/02 07:23:59;;;;;;;21.90;10.63;;;;;;;20.64;58.02;94441.28;5085440;28;20043;-73
2023/09/02 07:26:27;;;;;;;18.58;9.88;;;;;;;20.80;57.28;94448.47;5085273;28;20016;-73
2023/09/02 07:28:53;;;;;;;17.13;10.32;;;;;;;20.92;56.52;94440.13;5068270;28;20054;-73
2023/09/02 07:31:18;;;;;;;12.82;9.90;;;;;;;20.85;56.48;94448.16;5085982;28;20092;-73
2023/09/02 07:33:43;;;;;;;14.70;9.38;;;;;;;20.90;57.45;94439.72;5086033;28;20231;-73
2023/09/02 07:36:13;;;;;;;15.18;8.18;;;;;;;21.07;56.78;94434.94;5085931;28;20025;-73
2023/09/02 07:38:40;;;;;;;25.92;9.40;;;;;;;21.09;56.16;94446.97;5067914;28;20060;-73
2023/09/02 07:41:06;;;;;;;12.15;9.13;;;;;;;21.25;55.94;94446.81;5083986;28;20399;-73
2023/09/02 07:43:31;;;;;;;13.32;8.80;;;;;;;21.32;54.64;94446.91;5066287;28;20313;-73
2023/09/02 07:45:57;;;;;;;12.40;9.23;;;;;;;21.44;54.55;94443.22;5084288;28;20028;-73
2023/09/02 07:48:23;;;;;;;16.88;9.60;;;;;;;21.58;53.51;94437.19;5084062;28;20311;-73
2023/09/02 07:50:48;;;;;;;17.38;8.52;;;;;;;21.62;53.55;94438.78;5084066;28;20309;-73
2023/09/02 07:53:14;;;;;;;19.30;8.50;;;;;;;21.71;53.60;94440.44;5084227;28;20373;-73
2023/09/02 07:55:40;;;;;;;16.15;9.93;;;;;;;21.88;53.25;94444.50;5085417;28;20036;-73
2023/09/02 07:58:06;;;;;;;9.15;6.97;;;;;;;21.97;52.76;94436.84;5085495;28;20099;-73
2023/09/02 08:00:35;;;;;;;19.52;11.07;;;;;;;22.12;50.92;94441.25;5085321;28;20024;-73
2023/09/02 08:03:01;;;;;;;10.63;8.32;;;;;;;22.23;52.00;94444.09;5085048;28;20031;-73
2023/09/02 08:05:26;;;;;;;13.55;8.35;;;;;;;22.36;51.60;94453.56;5085137;28;20044;-72
2023/09/02 08:07:51;;;;;;;13.20;8.35;;;;;;;22.43;51.00;94447.44;5085238;28;20028;-73
2023/09/02 08:10:17;;;;;;;12.52;7.47;;;;;;;22.46;50.63;94452.09;5084829;28;20052;-73
2023/09/02 08:12:42;;;;;;;12.23;7.68;;;;;;;22.50;50.27;94450.19;5085118;28;20088;-73
2023/09/02 08:15:10;;;;;;;10.77;7.97;;;;;;;22.64;50.62;94453.03;5084900;28;20200;-73
2023/09/02 08:17:37;;;;;;;14.13;8.00;;;;;;;22.79;50.52;94453.13;5084315;28;20040;-73
2023/09/02 08:20:03;;;;;;;11.90;7.90;;;;;;;22.91;49.80;94455.56;5084717;28;20047;-73
2023/09/02 08:22:29;;;;;;;13.57;7.53;;;;;;;22.98;49.07;94458.34;5067131;28;20099;-73
2023/09/02 08:24:55;;;;;;;11.25;7.47;;;;;;;23.12;48.64;94454.19;5084877;28;20111;-73
2023/09/02 08:27:21;;;;;;;10.93;7.28;;;;;;;23.18;47.52;94458.09;5084732;28;20029;-73
2023/09/02 08:29:46;;;;;;;17.60;7.10;;;;;;;23.10;48.19;94456.50;5084645;28;20047;-73
2023/09/02 08:32:11;;;;;;;8.40;6.53;;;;;;;23.19;48.68;94448.81;5084899;28;20025;-73
2023/09/02 08:34:37;;;;;;;12.05;7.07;;;;;;;23.31;48.28;94456.63;5084541;28;20079;-73
2023/09/02 08:37:03;;;;;;;9.88;7.03;;;;;;;23.32;47.35;94446.53;5084694;28;20096;-73
2023/09/02 08:39:29;;;;;;;9.63;7.55;;;;;;;23.23;47.38;94452.31;5083318;28;20323;-73
2023/09/02 08:41:55;;;;;;;11.35;7.38;;;;;;;23.32;47.69;94441.09;5084739;28;20070;-73
2023/09/02 08:44:25;;;;;;;11.48;6.85;;;;;;;23.47;47.56;94445.47;5084223;28;20020;-73
2023/09/02 08:46:51;;;;;;;10.00;6.25;;;;;;;23.64;47.16;94444.75;5066539;28;20038;-73
2023/09/02 08:49:18;;;;;;;8.23;6.28;;;;;;;23.71;46.27;94430.41;5084384;28;20028;-73
2023/09/02 08:51:46;;;;;;;12.43;7.18;;;;;;;23.81;46.26;94439.78;5084364;28;20315;-73
2023/09/02 08:54:12;;;;;;;12.57;6.07;;;;;;;23.90;45.66;94447.63;5084458;28;20368;-73
2023/09/02 08:56:41;;;;;;;8.95;6.60;;;;;;;23.91;44.91;94439.03;5084208;28;20039;-73
2023/09/02 08:59:09;;;;;;;12.65;6.20;;;;;;;23.83;45.44;94440.97;5084177;28;20256;-73
2023/09/02 09:01:40;;;;;;;9.70;6.05;;;;;;;23.79;45.83;94434.75;5083885;28;20315;-73
2023/09/02 09:04:07;;;;;;;10.33;5.80;;;;;;;23.93;47.02;94441.38;5083997;28;20095;-73
2023/09/02 09:06:35;;;;;;;7.53;5.88;;;;;;;24.11;45.95;94442.22;5083988;28;20013;-73
2023/09/02 09:09:01;;;;;;;10.77;6.13;;;;;;;24.15;44.85;94425.88;5083616;28;20103;-73
2023/09/02 09:11:34;;;;;;;10.43;6.05;;;;;;;24.29;44.42;94431.34;5083410;28;20036;-73
2023/09/02 09:14:05;;;;;;;10.77;5.82;;;;;;;24.34;44.86;94427.47;5083812;28;20029;-73
2023/09/02 09:16:34;;;;;;;10.80;5.80;;;;;;;24.42;44.55;94429.03;5083906;28;20017;-73
2023/09/02 09:19:01;;;;;;;11.52;6.28;;;;;;;24.54;44.62;94434.13;5083736;28;20024;-73
2023/09/02 09:21:26;;;;;;;17.27;5.80;;;;;;;24.63;43.50;94423.63;5083921;28;20087;-73
2023/09/02 09:23:52;;;;;;;10.63;6.10;;;;;;;24.66;44.01;94421.31;5065945;28;20191;-73
2023/09/02 09:26:18;;;;;;;9.40;6.00;;;;;;;24.74;44.08;94428.31;5083694;28;20016;-73
2023/09/02 09:28:54;;;;;;;13.20;5.88;;;;;;;24.90;43.01;94419.72;5082830;28;20047;-73
2023/09/02 09:31:21;;;;;;;11.05;6.63;;;;;;;25.02;43.52;94419.34;5083553;28;20021;-73
2023/09/02 09:33:53;;;;;;;16.25;6.38;;;;;;;25.19;43.72;94423.19;5083611;28;20070;-73
2023/09/02 09:36:22;;;;;;;6.32;4.68;;;;;;;25.35;42.09;94412.66;5083516;28;20050;-73
2023/09/02 09:38:55;;;;;;;11.93;4.68;;;;;;;25.22;42.68;94411.53;5065594;28;20074;-72
2023/09/02 09:41:22;;;;;;;15.95;5.88;;;;;;;25.35;42.56;94415.38;5083061;28;20017;-72
2023/09/02 09:44:16;;;;;;;8.95;5.47;;;;;;;25.44;42.24;94406.78;5082173;28;20020;-72
2023/09/02 09:46:48;;;;;;;9.25;5.18;;;;;;;25.61;42.11;94407.91;5083527;28;20092;-73
2023/09/02 09:49:23;;;;;;;11.98;5.63;;;;;;;25.80;42.61;94407.41;5083541;28;20051;-73
2023/09/02 09:52:09;;;;;;;6.65;4.70;;;;;;;25.85;40.50;94408.16;5083118;28;20024;-73
2023/09/02 09:54:41;;;;;;;8.13;5.32;;;;;;;25.92;40.99;94406.22;5083309;28;20024;-73
2023/09/02 09:57:10;;;;;;;;;;;;;;;26.05;41.42;94401.06;5083791;28;20036;-73
2023/09/02 09:59:37;;;;;;;9.90;4.82;;;;;;;26.13;41.16;94397.13;5083033;28;20231;-73
2023/09/02 10:02:04;;;;;;;7.80;4.88;;;;;;;26.29;40.66;94401.31;5083165;28;20326;-73
2023/09/02 10:04:30;;;;;;;11.75;5.03;;;;;;;26.45;40.70;94398.84;5065186;28;20033;-73
2023/09/02 10:07:03;;;;;;;5.68;4.22;;;;;;;26.57;40.41;94400.34;5083136;28;20055;-73
2023/09/02 10:09:44;;;;;;;6.85;4.65;;;;;;;26.71;39.49;94394.00;5083001;28;20087;-73
2023/09/02 10:12:15;;;;;;;11.02;4.90;;;;;;;26.85;40.47;94399.34;5065065;28;20288;-73
2023/09/02 10:14:42;;;;;;;11.60;4.28;;;;;;;26.85;37.83;94399.34;5065201;28;20016;-73
2023/09/02 10:17:09;;;;;;;11.05;5.05;;;;;;;26.63;38.02;94392.53;5083115;28;20020;-73
2023/09/02 10:19:35;;;;;;;7.05;4.35;;;;;;;26.58;37.26;94390.97;5083163;28;20016;-73
2023/09/02 10:22:02;;;;;;;8.30;4.55;;;;;;;26.49;37.84;94387.91;5082895;28;20088;-73
2023/09/02 10:24:31;;;;;;;14.43;4.57;;;;;;;26.43;37.66;94382.09;5082967;28;20023;-73
2023/09/02 10:26:59;;;;;;;8.10;4.38;;;;;;;26.48;38.11;94375.41;5082788;28;20360;-73
2023/09/02 10:29:32;;;;;;;8.85;3.92;;;;;;;26.63;38.39;94379.63;5082618;28;20024;-74
2023/09/02 10:32:04;;;;;;;6.25;4.03;;;;;;;26.78;38.40;94381.03;5064612;28;20319;-73
2023/09/02 10:34:47;;;;;;;10.32;4.13;;;;;;;26.81;37.53;94374.00;5082638;28;20039;-73
2023/09/02 10:37:15;;;;;;;6.05;4.50;;;;;;;27.00;39.28;94372.63;5082709;28;20035;-73
2023/09/02 10:40:05;;;;;;;5.35;4.20;;;;;;;27.19;37.04;94374.00;5082918;28;20032;-73
2023/09/02 10:42:33;;;;;;;12.38;4.38;;;;;;;27.22;36.03;94371.22;5086645;28;20027;-74
2023/09/02 10:45:00;;;;;;;5.82;4.15;;;;;;;27.30;36.29;94382.91;5068513;28;20025;-75
2023/09/02 10:47:25;;;;;;;6.10;3.88;;;;;;;27.29;35.15;94378.59;5086617;28;20024;-78
2023/09/02 10:49:55;;;;;;;5.55;3.97;;;;;;;27.31;35.58;94370.75;5086695;28;20022;-80
2023/09/02 10:52:21;;;;;;;7.93;4.03;;;;;;;27.48;35.86;94377.25;5086431;28;20222;-75
2023/09/02 10:55:10;;;;;;;6.28;3.88;;;;;;;27.39;34.24;94379.69;5086497;28;20021;-75
2023/09/02 10:57:56;;;;;;;8.23;4.00;;;;;;;27.32;35.23;94377.03;5073911;28;20044;-76
2023/09/02 11:00:23;;;;;;;6.68;4.10;;;;;;;27.11;34.92;94373.31;5068580;28;20020;-75
2023/09/02 11:02:53;;;;;;;6.95;3.60;;;;;;;27.23;36.37;94382.97;5068575;28;20060;-76
2023/09/02 11:05:26;;;;;;;7.22;3.83;;;;;;;27.45;34.22;94372.56;5086632;28;20027;-75
2023/09/02 11:07:52;;;;;;;6.63;4.43;;;;;;;27.59;35.04;94374.38;5086563;28;20025;-75
2023/09/02 11:10:19;;;;;;;9.60;4.22;;;;;;;27.70;34.55;94369.53;5085345;28;20055;-75
2023/09/02 11:12:59;;;;;;;4.80;3.72;;;;;;;27.89;35.35;94370.09;5086185;28;20032;-75
2023/09/02 11:15:25;;;;;;;6.03;4.05;;;;;;;28.04;33.04;94370.69;5086233;28;20032;-76
2023/09/02 11:17:51;;;;;;;6.85;4.03;;;;;;;28.23;34.09;94367.28;5085784;28;20031;-75
2023/09/02 11:20:23;;;;;;;6.18;4.32;;;;;;;28.45;34.54;94367.69;5085868;28;20348;-75
2023/09/02 11:23:09;;;;;;;7.22;4.53;;;;;;;28.65;32.62;94367.03;5067676;28;20024;-76
2023/09/02 11:25:39;;;;;;;5.35;3.80;;;;;;;28.80;34.09;94354.63;5085528;28;20062;-75